Air Compressor With Motor Import to India

Connect2India provides real time data for Air Compressor With Motor import, historical Air Compressor With Motor import analysis, current demand in overseas countries and import price of Air Compressor With Motor.

Air Compressor With Motor

Air Compressor With Motor import data

Date HS Code Product Description Origin Port Destination Port Quantity Value (INR in Million) Unit Per Unit (INR)
2016-09-19 84144030 SCREW AIR COMPRESSOR MODEL #LG22-8 FAD 3.6M3/MIN WORKING PRESSURE 8BAR MOTOR POWER 30HP (22KW) VOLTAGE415V/50HZ CHINA Chennai Sea 1 0.1817 SET 181734.0
2016-09-19 84144030 SCREW AIR COMPRESSOR MODEL LG 18-8 FAD 3M3/MIN WORKING PRESSURE 8BAR MOTOR POWER 25HP (18.5KW) VOLTAGE 415 V/50HZ CHINA Chennai Sea 1 0.1762 SET 176248.0
2016-09-20 84144030 SCREW AIR COMPRESSORS [WITHOUT MOTOR] - LG27-8G CHINA Nhava Sheva Sea 3 2.6687 UNT 889572.0
2016-09-21 84835010 2113020184 MOTOR PULLY (AIR COMPRESSOR PARTS) CHINA Nhava Sheva Sea 5 0.0037 NOS 744.0
2016-09-21 84835010 2601232460 MOTOR PULLEY (AIR COMPRESSOR PARTS) CHINA Nhava Sheva Sea 6 0.0019 NOS 313.0
2016-09-21 84835010 2602230310 MOTOR PULLEY (AIR COMPRESSOR PARTS) CHINA Nhava Sheva Sea 6 0.008 NOS 1334.0
2016-09-21 84835010 2602230580 MOTOR PULLEY (AIR COMPRESSOR PARTS) CHINA Nhava Sheva Sea 8 0.0095 NOS 1191.0
2016-09-22 84149090 MOTOR FAN(SPARES FOR AIR COMPRESSOR) CHINA Chennai Sea 70 1.0E-4 PCS 1.0
2016-09-22 84149090 ALLUMINIUM MOTOR(SPARES FOR AIR COMPRESSOR) CHINA Chennai Sea 4 2.0E-4 PCS 53.0
2016-09-23 84144090 AIR COMPRESSOR PARTS ( DO42-10 AIR COMPRESSOR DIRECT DRIVE OIL 220 V50HZ-1.0H P10L AL MOTOR-ACTUL USER] CHINA Chennai Sea 10 0.0262 PCS 2617.0
2016-09-23 84144090 AIR COMPRESSOR PARTS ( DO4740-24 AIR COMPRESSOR DIRECT DRIVEOIL 220 V50HZ 2.5HP24L - AL MOTOR -ACTUL USER] CHINA Chennai Sea 100 0.3827 PCS 3826.0
2016-09-23 84144090 AIR COMPRESSOR PARTS (1100-50 V AIR COMPRESSOR HEAD SILENCE220V50 HZ1100W 50V, COPPER MOTOR-ACTUL USER] CHINA Chennai Sea 10 0.1026 PCS 10257.0
2016-09-23 84144090 AIR COMPRESSOR PARTS (1100 AIR COMPRESSOR PUMP HEAD SILENCE220V50 HZ1100W COPPER MOTOR- ACTUL USER] CHINA Chennai Sea 10 0.0601 PCS 6012.0
2016-09-23 84144090 AIR COMPRESSOR PARTS (DO4740-50AIR COMPRESSOR DIRECT DRIVE OIL 220 V50HZ 2.5HP50L - AL MOTOR -ACTUL USER] CHINA Chennai Sea 75 0.3273 PCS 4364.0
2016-09-24 84149090 ISOL VIB MOTOR 37 KW 540 02250155 285 (AIR COMPRESSOR PARTS) CHINA Chennai Sea 1 0.0011 KGS 1117.0
2016-09-24 84149090 BOOT GUARD FOR MOTOR 88290020 389(AIR COMPRESSOR PARTS) CHINA Chennai Sea 3 1.0E-4 KGS 40.0
2016-09-26 73079290 FIXING PLATE FOR MOTOR,PARTS OF AIR COMPRESSOR CHINA Tughlakabad 6 0.0017 PCS 284.0
2016-09-27 84144030 SCREW AIR COMPRESSORS [WITHOUT MOTOR] - JN55-3 CHINA Nhava Sheva Sea 1 0.8292 UNT 829162.0
2016-09-27 84149090 AIR COMPRESSOR EJ3219D629AD FOR MOTOR VEHICLE [CAPTIVE CONSUMPTION] UNITED KINGDOM Nhava Sheva Sea 12 0.1074 PCS 8948.0
2016-09-27 84149090 AIR CON COMPRESSOR CPLA19D629BF FOR MOTOR VEHICLE [CAPTIVE CONSUMPTION] UNITED KINGDOM Nhava Sheva Sea 18 0.1513 PCS 8408.0
2016-09-28 84149090 KAESER MAKE SCREW COMPRESSED AIR SYSTEM FAD OF COMPRESSOR IS162 CFM @8.5 BAR MOTOR POWER IS 25 KW MODEL-ASD50 GERMANY Patparganj 1 0.4955 NOS 495526.0
2016-10-04 84145990 AXIAL FAN MOTOR (AIR COMPRESSOR PARTS) CHINA Chennai Air Cargo 200 0.5861 SET 2930.0
2016-10-04 84149090 AIR CON COMPRESSOR CPLA19D629BF FOR MOTOR VEHICLE [CAPTIVE CONSUMPTION] UNITED KINGDOM Nhava Sheva Sea 6 0.0505 PCS 8421.0
2016-10-05 84144090 AIR COMPRESSOR SPARE PARTS(50HP COOLER FAN MOTOR- ACTUL USER] CHINA Chennai Sea 2 0.02 PCS 9982.0
2016-10-06 84149090 AIR CON COMPRESSOR CPLA19D629BF FOR MOTOR VEHICLE [CAPTIVE CONSUMPTION] UNITED KINGDOM Nhava Sheva Sea 6 0.0497 PCS 8284.0
2016-10-07 85015390 2106022430 MOTOR (AIR COMPRESSOR PARTS) CHINA Nhava Sheva Sea 37 0.2256 NOS 6097.0
2016-10-07 85015390 2106022432 MOTOR (AIR COMPRESSOR PARTS) CHINA Nhava Sheva Sea 36 0.5051 NOS 14031.0
2016-10-07 85015390 2106022481 MOTOR (AIR COMPRESSOR PARTS) CHINA Nhava Sheva Sea 5 0.0278 NOS 5551.0
2016-10-07 85015390 2106022482 MOTOR (AIR COMPRESSOR PARTS) CHINA Nhava Sheva Sea 5 0.1244 NOS 24871.0
2016-10-07 84835010 2601231480 MOTOR PULLEY (AIR COMPRESSOR PARTS) CHINA Nhava Sheva Sea 20 0.0127 NOS 633.0
2016-10-07 84835010 2601232560 MOTOR PULLEY (AIR COMPRESSOR PARTS) CHINA Nhava Sheva Sea 6 0.0049 NOS 808.0
2016-10-07 84835010 2601233700 MOTOR PULLEY 50C/S (AIR COMPRESSOR PARTS) CHINA Nhava Sheva Sea 25 0.0191 NOS 765.0
2016-10-07 84835010 2601233980 MOTOR PULLEY (AIR COMPRESSOR PARTS) CHINA Nhava Sheva Sea 5 0.0016 NOS 319.0
2016-10-07 84835010 2602230070 MOTOR PULLEY (AIR COMPRESSOR PARTS) CHINA Nhava Sheva Sea 4 0.0021 NOS 520.0
2016-10-07 84835010 2602230390 MOTOR PULLEY (AIR COMPRESSOR PARTS) CHINA Nhava Sheva Sea 2 8.0E-4 NOS 375.0
2016-10-10 84149090 AIR CON COMPRESSOR CPLA19D629BF FOR MOTOR VEHICLE [CAPTIVE CONSUMPTION] UNITED KINGDOM Nhava Sheva Sea 6 0.0484 PCS 8066.0
2016-10-13 84144090 GEAR AIR COMPRESSOR PART NO.51-54210-0205 (COMPONENT PARTS FOR MOTOR VEHICLE) ITALY Nhava Sheva Sea 600 0.7298 PCS 1216.0
2016-10-13 84149090 AIR CON COMPRESSOR CPLA19D629BF FOR MOTOR VEHICLE [CAPTIVE CONSUMPTION] UNITED KINGDOM Nhava Sheva Sea 6 0.0482 PCS 8034.0
2016-10-14 84149090 AIR CON COMPRESSOR CPLA19D629AF FOR MOTOR VEHICLE [CAPTIVE CONSUMPTION] UNITED KINGDOM Nhava Sheva Sea 6 0.0392 PCS 6534.0
2016-10-14 84149090 AIR CON COMPRESSOR CPLA19D629BF FOR MOTOR VEHICLE [CAPTIVE CONSUMPTION] UNITED KINGDOM Nhava Sheva Sea 12 0.0964 PCS 8036.0
2016-10-17 84149090 ADPT.COMPR/MOTOR AS30 - 88291005-388 ( AIR COMPRESSOR PARTS ) CHINA Chennai Air Cargo 3 0.0257 PCS 8569.0
2016-10-17 84835010 2605235300 MOTOR PULLEY (AIR COMPRESSOR PARTS) CHINA Nhava Sheva Sea 1 0.0037 NOS 3707.0
2016-10-18 84149090 AIR CON COMPRESSOR CPLA19D629BF FOR MOTOR VEHICLE [CAPTIVE CONSUMPTION] UNITED KINGDOM Nhava Sheva Sea 18 0.1449 PCS 8050.0
2016-10-20 84144090 AIR COMPRESSOR 580W MOTOR WITH 35L TANK MODEL JYK35L (FOR DENTAL) CHINA Chennai Sea 171 0.9987 PCS 5840.0
2016-10-20 84144090 AIR COMPRESSOR 580W MOTOR X 2PCS WITH 50L TANK W/DRYER AND COOLER SYSTEM MODEL EYK50 (FOR DENTAL) CHINA Chennai Sea 12 0.2721 PCS 22674.0
2016-10-20 84144090 AIR COMPRESSOR 800W MOTOR WITH 35L TANK MODEL JYK35 (FOR DENTAL) CHINA Chennai Sea 200 1.3055 PCS 6527.0
2016-10-20 84149090 AIR CON COMPRESSOR CPLA19D629BF FOR MOTOR VEHICLE [CAPTIVE CONSUMPTION UNITED KINGDOM Nhava Sheva Sea 12 0.0962 PCS 8014.0
2016-10-20 84149090 AIR CON COMPRESSOR CPLA19D629BF FOR MOTOR VEHICLE [CAPTIVE CONSUMPTION] UNITED KINGDOM Nhava Sheva Sea 12 0.0962 PCS 8018.0
2016-10-24 84149090 SPARE PARTS FOR AIR COMPRESSOR - MOTOR BRACKET CHINA Chennai Sea 10 6.0E-4 PCS 63.0
2016-10-24 84144090 AIR COMPRESSOR 10HP AIR END AND MOTOR SET CHINA Chennai Sea 1 0.0281 PCS 28077.0
2016-10-24 84835010 2601236500 MOTOR PULLEY 24/194 (AIR COMPRESSOR PARTS) CHINA Nhava Sheva Sea 2 7.0E-4 NOS 370.0
2016-10-26 84144090 AIR COMPRESSOR SAUER HP W/O MOTOR WITH STD ACCS ( WP 4341 GERMANY Chennai Sea 1 1.1887 UNT 1188705.0
2016-10-26 84144090 AIR COMPRESSOR SAUER HP WITHOUT MOTOR WITH STD ACCS ( WP 45L GERMANY Chennai Sea 2 0.6525 UNT 326257.0
2016-10-27 84144030 SCREW AIR COMPRESSOR MODEL GA-315 VSD WATER COOLED ALONG WITH MAIN DRIVE MOTOR AND ACCESSORIES BELGIUM Chennai Sea 1 6.3724 SET 6372438.0
2016-10-27 40169390 PARTS FOR AIR COMPRESSOR MODEL: DSP-100VA5MN O-RING (MOTOR FLANGE)(QTY : 1 PCS, UNIT PRICE : 2050 JPY) JAPAN Hyderabad Air Cargo 0 0.0014 KGS 0.0
2016-10-31 84144090 MAIN AIR COMPRESSOR COMPLETE WITH MOTOR L TYPE-2 STAGE, WORKING PRESSURE:3.0 MPA,MODEL:S5A,(REFRIGERATION COMPRESSOR) JAPAN Chennai Air Cargo 1 0.4348 SET 434791.0
2016-11-01 84149011 MOTOR PROTECTOR -RHNC0084 - PARTS OF AIR CONDITIONER COMPRESSORS (FOR CAPTIVE CONSUMPTION) CHINA Bombay Air Cargo 1000 0.0614 PCS 61.0

Related products

Air Compressor With Motor Trade Data - Indian Ports

S. No Product Product Code Quantity Value (INR in Million) Unit Origin Port Destination Port
2113020184 MOTOR PULLEY (AIR COMPRESSOR PARTS) 84835010 2 0.0014 UNT CHINA Nhava Sheva Sea
2113020205 MOTOR PULLEY (AIR COMPRESSOR PARTS) 84835010 1 4.0E-4 UNT CHINA Nhava Sheva Sea
2601232460 MOTOR PULLEY (AIR COMPRESSOR PARTS) 84835010 2 6.0E-4 UNT CHINA Nhava Sheva Sea
2601232560 MOTOR PULLEY (AIR COMPRESSOR PARTS) 84835010 1 8.0E-4 UNT CHINA Nhava Sheva Sea
2601233700 MOTOR PULLEY 50C/S (AIR COMPRESSOR PARTS) 84835010 6 0.0044 UNT CHINA Nhava Sheva Sea
2601234270 MOTOR PULLEY 50C/S (AIR COMPRESSOR PARTS) 84835010 5 0.0022 UNT CHINA Nhava Sheva Sea
2601234670 MOTOR PULLEY (AIR COMPRESSOR PARTS) 84835010 2 0.0016 UNT CHINA Nhava Sheva Sea
2601234832 MOTOR PULLEY (AIR COMPRESSOR PARTS) 84835010 2 0.0025 UNT CHINA Nhava Sheva Sea
2601236850 MOTOR PULLEY (AIR COMPRESSOR PARTS) 84835010 2 0.001 UNT CHINA Nhava Sheva Sea
2602230070 MOTOR PULLEY (AIR COMPRESSOR PARTS) 84835010 1 5.0E-4 UNT CHINA Nhava Sheva Sea
2602230320 MOTOR PULLEY (AIR COMPRESSOR PARTS) 84835010 1 0.0011 UNT CHINA Nhava Sheva Sea
2605235220 MOTOR PULLEY (AIR COMPRESSOR PARTS) 84835010 40 0.0085 UNT CHINA Nhava Sheva Sea
2605235250 MOTOR PULLEY (AIR COMPRESSOR PARTS) 84835010 2 0.0062 NOS CHINA Nhava Sheva Sea
2605235250 MOTOR PULLEY (AIR COMPRESSOR PARTS) 84835010 4 0.0125 UNT CHINA Nhava Sheva Sea
2605235300 MOTOR PULLEY (AIR COMPRESSOR PARTS) 84835010 1 0.0036 NOS CHINA Nhava Sheva Sea
2605235300 MOTOR PULLEY (AIR COMPRESSOR PARTS) 84835010 3 0.0108 UNT CHINA Nhava Sheva Sea
2605235330 MOTOR PULLEY (AIR COMPRESSOR PARTS) 84835010 4 0.0091 UNT CHINA Nhava Sheva Sea
2605235340 MOTOR PULLEY (AIR COMPRESSOR PARTS) 84835010 1 0.0029 UNT CHINA Nhava Sheva Sea
2605235370 MOTOR PULLEY (AIR COMPRESSOR PARTS) 84835010 2 0.0033 UNT CHINA Nhava Sheva Sea
2605235380 MOTOR PULLEY (AIR COMPRESSOR PARTS) 84835010 2 0.0045 UNT CHINA Nhava Sheva Sea
2605235410 MOTOR PULLEY (AIR COMPRESSOR PARTS) 84835010 4 0.0109 UNT CHINA Nhava Sheva Sea
2605235470 MOTOR PULLEY (AIR COMPRESSOR PARTS) 84835010 1 0.0027 UNT CHINA Nhava Sheva Sea
2605236770 MOTOR PULLEY (AIR COMPRESSOR PARTS) 84835010 1 0.002 UNT CHINA Nhava Sheva Sea
DP1093-3 TRANSDUCER, MOTOR CURRENT (AIR COMPRESSOR PARTS) 84149090 2 0.0176 KGS UNITED STATES Nhava Sheva Sea
AIR COMPRESSOR SAUER HP WITHOUT MOTOR WITH STD ACCS ( WP 66L 84144090 1 0.5471 UNT GERMANY Chennai Sea

Looking to import Air Compressor With Motor?

With end to end global trade solutions from Connect2India, we enable Indian SMEs to start and grow their business globally

Yearwise analysis of Air Compressor With Motor import to India

Below is the detailed list of Air Compressor With Motor import to India with quantity, volume, price, origin port and the destination port.

Increase your Air Compressor With Motor imports with steady access to working capital with our import financing solutions at Connect2India.

Looking to import Air Compressor With Motor from genuine and best quality Indian suppliers?

Graphical representation for Air Compressor With Motor import

Air Compressor With Motor - Recent import data

How connect2india can help you import Air Compressor With Motor?

Connect2India can help you find Air Compressor With Motor suppliers / exporters in more than 100 countries, arrange import orders for Air Compressor With Motor, find the most effective market to import Air Compressor With Motor, help you out with procedures and formalities required to import Air Compressor With Motor in India and also assist you in Air Compressor With Motor shipment and logistics. Our trade experts are always available for any help regarding the import of Air Compressor With Motor and its products. If you want more information, please get in touch with our trade experts here

People Also Ask

Whom can I contact for more information on Air Compressor With Motor import to India?

You can submit your requirement on Connect2India and our representative will get in touch with you with more information about Air Compressor With Motor. Alternatively, you can call us @ +91-7876759999 or email us to info@connect2India.com

Which is the most popular Indian port for Air Compressor With Motor import?

Nhava Sheva Sea is the most popular port for Air Compressor With Motor import to India

What are the top three import shipments of Air Compressor With Motor traded to India?

Following are the top three import shipments of Air Compressor With Motor traded to India :

  • SCREW AIR COMPRESSOR MODEL #LG22-8 FAD 3.6M3/MIN WORKING PRESSURE 8BAR MOTOR POWER 30HP (22KW) VOLTAGE415V/50HZ
  • SCREW AIR COMPRESSOR MODEL LG 18-8 FAD 3M3/MIN WORKING PRESSURE 8BAR MOTOR POWER 25HP (18.5KW) VOLTAGE 415 V/50HZ
  • SCREW AIR COMPRESSORS [WITHOUT MOTOR] - LG27-8G